sensor_id;sensor_type;location;lat;lon;timestamp;temperature;humidity
69589;SHT31;56792;50.644;17.984;2022-07-06T00:01:01;15.66;81.80
69589;SHT31;56792;50.644;17.984;2022-07-06T00:03:30;15.62;81.84
69589;SHT31;56792;50.644;17.984;2022-07-06T00:06:00;15.58;81.95
69589;SHT31;56792;50.644;17.984;2022-07-06T00:08:29;15.55;81.89
69589;SHT31;56792;50.644;17.984;2022-07-06T00:10:59;15.53;81.90
69589;SHT31;56792;50.644;17.984;2022-07-06T00:13:29;15.48;81.89
69589;SHT31;56792;50.644;17.984;2022-07-06T00:15:59;15.46;81.92
69589;SHT31;56792;50.644;17.984;2022-07-06T00:18:28;15.43;81.99
69589;SHT31;56792;50.644;17.984;2022-07-06T00:20:58;15.40;82.00
69589;SHT31;56792;50.644;17.984;2022-07-06T00:23:28;15.38;82.06
69589;SHT31;56792;50.644;17.984;2022-07-06T00:25:58;15.35;81.97
69589;SHT31;56792;50.644;17.984;2022-07-06T00:28:28;15.31;81.88
69589;SHT31;56792;50.644;17.984;2022-07-06T00:30:58;15.25;81.85
69589;SHT31;56792;50.644;17.984;2022-07-06T00:33:27;15.21;81.79
69589;SHT31;56792;50.644;17.984;2022-07-06T00:35:58;15.19;81.77
69589;SHT31;56792;50.644;17.984;2022-07-06T00:38:28;15.16;81.82
69589;SHT31;56792;50.644;17.984;2022-07-06T00:40:57;15.11;81.83
69589;SHT31;56792;50.644;17.984;2022-07-06T00:43:27;15.06;81.77
69589;SHT31;56792;50.644;17.984;2022-07-06T00:46:12;15.01;81.78
69589;SHT31;56792;50.644;17.984;2022-07-06T00:48:42;14.97;81.80
69589;SHT31;56792;50.644;17.984;2022-07-06T00:51:11;14.92;81.84
69589;SHT31;56792;50.644;17.984;2022-07-06T00:53:41;14.91;81.92
69589;SHT31;56792;50.644;17.984;2022-07-06T00:56:13;14.90;82.12
69589;SHT31;56792;50.644;17.984;2022-07-06T00:58:42;14.87;82.29
69589;SHT31;56792;50.644;17.984;2022-07-06T01:01:13;14.86;82.37
69589;SHT31;56792;50.644;17.984;2022-07-06T01:03:43;14.84;82.39
69589;SHT31;56792;50.644;17.984;2022-07-06T01:06:13;14.80;82.39
69589;SHT31;56792;50.644;17.984;2022-07-06T01:08:43;14.78;82.54
69589;SHT31;56792;50.644;17.984;2022-07-06T01:11:14;14.79;82.76
69589;SHT31;56792;50.644;17.984;2022-07-06T01:13:46;14.77;82.80
69589;SHT31;56792;50.644;17.984;2022-07-06T01:16:17;14.70;82.83
69589;SHT31;56792;50.644;17.984;2022-07-06T01:18:47;14.68;83.04
69589;SHT31;56792;50.644;17.984;2022-07-06T01:21:16;14.65;83.18
69589;SHT31;56792;50.644;17.984;2022-07-06T01:23:46;14.63;83.16
69589;SHT31;56792;50.644;17.984;2022-07-06T01:26:17;14.61;83.25
69589;SHT31;56792;50.644;17.984;2022-07-06T01:28:48;14.61;83.29
69589;SHT31;56792;50.644;17.984;2022-07-06T01:31:20;14.59;83.43
69589;SHT31;56792;50.644;17.984;2022-07-06T01:33:52;14.56;83.66
69589;SHT31;56792;50.644;17.984;2022-07-06T01:36:23;14.53;83.84
69589;SHT31;56792;50.644;17.984;2022-07-06T01:38:53;14.54;83.98
69589;SHT31;56792;50.644;17.984;2022-07-06T01:41:24;14.56;84.02
69589;SHT31;56792;50.644;17.984;2022-07-06T01:43:54;14.55;84.00
69589;SHT31;56792;50.644;17.984;2022-07-06T01:46:23;14.58;84.04
69589;SHT31;56792;50.644;17.984;2022-07-06T01:48:53;14.62;84.21
69589;SHT31;56792;50.644;17.984;2022-07-06T01:51:22;14.67;84.45
69589;SHT31;56792;50.644;17.984;2022-07-06T01:53:53;14.71;84.63
69589;SHT31;56792;50.644;17.984;2022-07-06T01:56:22;14.74;84.78
69589;SHT31;56792;50.644;17.984;2022-07-06T01:58:57;14.73;84.88
69589;SHT31;56792;50.644;17.984;2022-07-06T04:56:55;16.22;84.05
69589;SHT31;56792;50.644;17.984;2022-07-06T06:39:38;18.08;74.98
69589;SHT31;56792;50.644;17.984;2022-07-06T06:49:34;17.84;76.52
69589;SHT31;56792;50.644;17.984;2022-07-06T07:40:10;18.10;78.33
69589;SHT31;56792;50.644;17.984;2022-07-06T14:40:00;25.68;46.10
69589;SHT31;56792;50.644;17.984;2022-07-06T14:42:30;25.70;46.92
69589;SHT31;56792;50.644;17.984;2022-07-06T14:45:20;25.66;46.65
69589;SHT31;56792;50.644;17.984;2022-07-06T14:47:56;25.67;47.40
69589;SHT31;56792;50.644;17.984;2022-07-06T14:50:35;25.73;47.11
69589;SHT31;56792;50.644;17.984;2022-07-06T14:53:25;25.67;46.40
69589;SHT31;56792;50.644;17.984;2022-07-06T15:16:32;25.55;47.89
69589;SHT31;56792;50.644;17.984;2022-07-06T15:19:22;25.59;47.96
69589;SHT31;56792;50.644;17.984;2022-07-06T15:22:05;25.59;47.72
69589;SHT31;56792;50.644;17.984;2022-07-06T15:24:55;25.58;47.85
69589;SHT31;56792;50.644;17.984;2022-07-06T15:27:45;25.46;47.20
69589;SHT31;56792;50.644;17.984;2022-07-06T15:30:26;25.29;47.47
69589;SHT31;56792;50.644;17.984;2022-07-06T15:33:06;25.17;47.43
69589;SHT31;56792;50.644;17.984;2022-07-06T15:35:53;25.20;47.65
69589;SHT31;56792;50.644;17.984;2022-07-06T15:38:44;25.16;49.64
69589;SHT31;56792;50.644;17.984;2022-07-06T15:41:35;24.95;50.03
69589;SHT31;56792;50.644;17.984;2022-07-06T15:44:18;24.80;50.10
69589;SHT31;56792;50.644;17.984;2022-07-06T15:47:02;24.66;50.75
69589;SHT31;56792;50.644;17.984;2022-07-06T17:41:59;22.99;49.90
69589;SHT31;56792;50.644;17.984;2022-07-06T17:44:35;22.91;49.83
69589;SHT31;56792;50.644;17.984;2022-07-06T17:47:26;22.85;50.06
69589;SHT31;56792;50.644;17.984;2022-07-06T17:50:07;22.80;50.11
69589;SHT31;56792;50.644;17.984;2022-07-06T17:52:46;22.75;50.43
69589;SHT31;56792;50.644;17.984;2022-07-06T17:55:26;22.68;50.50
69589;SHT31;56792;50.644;17.984;2022-07-06T17:58:04;22.61;51.20
69589;SHT31;56792;50.644;17.984;2022-07-06T18:00:54;22.54;51.35
69589;SHT31;56792;50.644;17.984;2022-07-06T18:03:34;22.47;51.56
69589;SHT31;56792;50.644;17.984;2022-07-06T18:06:25;22.38;52.19
69589;SHT31;56792;50.644;17.984;2022-07-06T18:09:17;22.32;52.41
69589;SHT31;56792;50.644;17.984;2022-07-06T18:11:51;22.27;52.08
69589;SHT31;56792;50.644;17.984;2022-07-06T18:14:25;22.19;52.29
69589;SHT31;56792;50.644;17.984;2022-07-06T18:17:07;22.11;52.55
69589;SHT31;56792;50.644;17.984;2022-07-06T18:19:39;22.04;52.96
69589;SHT31;56792;50.644;17.984;2022-07-06T18:22:14;21.91;53.23
69589;SHT31;56792;50.644;17.984;2022-07-06T18:24:50;21.82;53.55
69589;SHT31;56792;50.644;17.984;2022-07-06T18:27:24;21.74;54.12
69589;SHT31;56792;50.644;17.984;2022-07-06T18:29:54;21.67;54.66
69589;SHT31;56792;50.644;17.984;2022-07-06T18:32:25;21.59;55.11
69589;SHT31;56792;50.644;17.984;2022-07-06T18:34:56;21.52;55.73
69589;SHT31;56792;50.644;17.984;2022-07-06T18:37:29;21.44;55.57
69589;SHT31;56792;50.644;17.984;2022-07-06T18:40:04;21.38;55.91
69589;SHT31;56792;50.644;17.984;2022-07-06T18:42:39;21.30;56.14
69589;SHT31;56792;50.644;17.984;2022-07-06T18:45:11;21.21;56.34
69589;SHT31;56792;50.644;17.984;2022-07-06T18:47:41;21.11;55.93
69589;SHT31;56792;50.644;17.984;2022-07-06T18:50:32;21.05;56.51
69589;SHT31;56792;50.644;17.984;2022-07-06T18:53:06;21.01;56.61
69589;SHT31;56792;50.644;17.984;2022-07-06T18:55:44;20.96;56.35
69589;SHT31;56792;50.644;17.984;2022-07-06T18:58:14;20.88;56.29
69589;SHT31;56792;50.644;17.984;2022-07-06T19:00:45;20.84;56.77
69589;SHT31;56792;50.644;17.984;2022-07-06T19:03:21;20.81;56.81
69589;SHT31;56792;50.644;17.984;2022-07-06T19:05:57;20.76;56.56
69589;SHT31;56792;50.644;17.984;2022-07-06T19:08:33;20.72;57.15
69589;SHT31;56792;50.644;17.984;2022-07-06T19:11:04;20.65;57.35
69589;SHT31;56792;50.644;17.984;2022-07-06T19:13:37;20.58;57.84
69589;SHT31;56792;50.644;17.984;2022-07-06T19:16:07;20.52;58.08
69589;SHT31;56792;50.644;17.984;2022-07-06T19:18:39;20.48;58.19
69589;SHT31;56792;50.644;17.984;2022-07-06T19:21:12;20.42;58.52
69589;SHT31;56792;50.644;17.984;2022-07-06T19:23:48;20.36;58.60
69589;SHT31;56792;50.644;17.984;2022-07-06T19:26:21;20.31;58.94
69589;SHT31;56792;50.644;17.984;2022-07-06T19:29:00;20.28;58.93
69589;SHT31;56792;50.644;17.984;2022-07-06T19:31:36;20.23;59.07
69589;SHT31;56792;50.644;17.984;2022-07-06T19:34:09;20.15;59.01
69589;SHT31;56792;50.644;17.984;2022-07-06T19:36:49;20.09;58.96
69589;SHT31;56792;50.644;17.984;2022-07-06T19:50:28;19.84;60.42
69589;SHT31;56792;50.644;17.984;2022-07-06T19:56:48;19.77;60.91
69589;SHT31;56792;50.644;17.984;2022-07-06T20:03:20;19.66;61.19
69589;SHT31;56792;50.644;17.984;2022-07-06T20:05:55;19.66;60.72
69589;SHT31;56792;50.644;17.984;2022-07-06T20:08:28;19.77;60.72
69589;SHT31;56792;50.644;17.984;2022-07-06T20:10:58;19.81;60.69
69589;SHT31;56792;50.644;17.984;2022-07-06T20:13:28;19.72;61.00
69589;SHT31;56792;50.644;17.984;2022-07-06T20:16:20;19.68;61.10
69589;SHT31;56792;50.644;17.984;2022-07-06T20:18:52;19.67;59.73
69589;SHT31;56792;50.644;17.984;2022-07-06T20:30:16;19.61;57.39
69589;SHT31;56792;50.644;17.984;2022-07-06T20:32:47;19.60;56.30
69589;SHT31;56792;50.644;17.984;2022-07-06T20:35:23;19.65;55.56
69589;SHT31;56792;50.644;17.984;2022-07-06T20:37:59;19.77;54.76
69589;SHT31;56792;50.644;17.984;2022-07-06T20:40:35;19.81;54.05
69589;SHT31;56792;50.644;17.984;2022-07-06T20:43:05;19.73;53.72
69589;SHT31;56792;50.644;17.984;2022-07-06T20:45:37;19.66;53.58
69589;SHT31;56792;50.644;17.984;2022-07-06T20:53:38;19.48;53.42
69589;SHT31;56792;50.644;17.984;2022-07-06T20:59:49;19.30;53.49
69589;SHT31;56792;50.644;17.984;2022-07-06T21:02:21;19.22;53.21
69589;SHT31;56792;50.644;17.984;2022-07-06T21:04:51;19.14;53.72
69589;SHT31;56792;50.644;17.984;2022-07-06T21:07:21;19.07;54.13
69589;SHT31;56792;50.644;17.984;2022-07-06T21:09:52;19.01;53.97
69589;SHT31;56792;50.644;17.984;2022-07-06T21:12:23;18.96;54.24
69589;SHT31;56792;50.644;17.984;2022-07-06T21:14:56;18.91;54.55
69589;SHT31;56792;50.644;17.984;2022-07-06T21:17:26;18.86;54.81
69589;SHT31;56792;50.644;17.984;2022-07-06T21:19:57;18.81;54.55
69589;SHT31;56792;50.644;17.984;2022-07-06T21:22:28;18.73;54.69
69589;SHT31;56792;50.644;17.984;2022-07-06T21:25:04;18.65;54.83
69589;SHT31;56792;50.644;17.984;2022-07-06T21:27:36;18.56;54.60
69589;SHT31;56792;50.644;17.984;2022-07-06T21:30:07;18.50;54.85
69589;SHT31;56792;50.644;17.984;2022-07-06T21:32:39;18.42;55.11
69589;SHT31;56792;50.644;17.984;2022-07-06T21:35:09;18.34;54.82
69589;SHT31;56792;50.644;17.984;2022-07-06T21:37:41;18.25;54.78
69589;SHT31;56792;50.644;17.984;2022-07-06T21:40:12;18.17;54.81
69589;SHT31;56792;50.644;17.984;2022-07-06T21:42:42;18.06;54.75
69589;SHT31;56792;50.644;17.984;2022-07-06T21:45:13;17.97;55.31
69589;SHT31;56792;50.644;17.984;2022-07-06T21:47:44;17.88;55.35
69589;SHT31;56792;50.644;17.984;2022-07-06T21:50:15;17.79;55.35
69589;SHT31;56792;50.644;17.984;2022-07-06T21:52:45;17.71;55.65
69589;SHT31;56792;50.644;17.984;2022-07-06T21:55:35;17.59;56.31
69589;SHT31;56792;50.644;17.984;2022-07-06T21:58:04;17.48;57.07
69589;SHT31;56792;50.644;17.984;2022-07-06T22:00:34;17.38;57.67
69589;SHT31;56792;50.644;17.984;2022-07-06T22:03:08;17.28;58.49
69589;SHT31;56792;50.644;17.984;2022-07-06T22:05:39;17.20;59.01
69589;SHT31;56792;50.644;17.984;2022-07-06T22:08:09;17.12;59.48
69589;SHT31;56792;50.644;17.984;2022-07-06T22:10:38;17.02;59.59
69589;SHT31;56792;50.644;17.984;2022-07-06T22:13:08;16.94;59.93
69589;SHT31;56792;50.644;17.984;2022-07-06T22:15:58;16.84;60.25
69589;SHT31;56792;50.644;17.984;2022-07-06T22:18:27;16.77;60.63
69589;SHT31;56792;50.644;17.984;2022-07-06T22:20:57;16.69;61.04
69589;SHT31;56792;50.644;17.984;2022-07-06T22:23:27;16.61;61.44
69589;SHT31;56792;50.644;17.984;2022-07-06T22:25:57;16.51;62.00
69589;SHT31;56792;50.644;17.984;2022-07-06T22:28:32;16.43;62.41
69589;SHT31;56792;50.644;17.984;2022-07-06T22:31:01;16.34;62.80
69589;SHT31;56792;50.644;17.984;2022-07-06T22:33:31;16.25;62.87
69589;SHT31;56792;50.644;17.984;2022-07-06T22:36:01;16.17;63.39
69589;SHT31;56792;50.644;17.984;2022-07-06T22:38:37;16.07;63.45
69589;SHT31;56792;50.644;17.984;2022-07-06T22:41:27;15.99;63.82
69589;SHT31;56792;50.644;17.984;2022-07-06T22:44:17;15.89;64.24
69589;SHT31;56792;50.644;17.984;2022-07-06T22:46:46;15.83;64.43
69589;SHT31;56792;50.644;17.984;2022-07-06T22:49:19;15.77;64.63
69589;SHT31;56792;50.644;17.984;2022-07-06T22:51:52;15.72;64.98
69589;SHT31;56792;50.644;17.984;2022-07-06T22:54:22;15.64;65.24
69589;SHT31;56792;50.644;17.984;2022-07-06T22:56:52;15.56;65.52
69589;SHT31;56792;50.644;17.984;2022-07-06T22:59:25;15.48;65.73
69589;SHT31;56792;50.644;17.984;2022-07-06T23:02:01;15.44;66.04
69589;SHT31;56792;50.644;17.984;2022-07-06T23:04:36;15.40;66.40
69589;SHT31;56792;50.644;17.984;2022-07-06T23:07:09;15.35;66.54
69589;SHT31;56792;50.644;17.984;2022-07-06T23:09:39;15.29;66.75
69589;SHT31;56792;50.644;17.984;2022-07-06T23:12:12;15.25;66.89
69589;SHT31;56792;50.644;17.984;2022-07-06T23:14:47;15.23;67.23
69589;SHT31;56792;50.644;17.984;2022-07-06T23:17:21;15.20;67.75
69589;SHT31;56792;50.644;17.984;2022-07-06T23:19:57;15.18;68.19
69589;SHT31;56792;50.644;17.984;2022-07-06T23:22:27;15.17;68.47
69589;SHT31;56792;50.644;17.984;2022-07-06T23:25:01;15.17;68.46
69589;SHT31;56792;50.644;17.984;2022-07-06T23:27:35;15.19;68.53
69589;SHT31;56792;50.644;17.984;2022-07-06T23:30:05;15.17;68.84
69589;SHT31;56792;50.644;17.984;2022-07-06T23:32:41;15.19;68.89
69589;SHT31;56792;50.644;17.984;2022-07-06T23:35:31;15.15;69.12
69589;SHT31;56792;50.644;17.984;2022-07-06T23:38:21;15.05;69.32
69589;SHT31;56792;50.644;17.984;2022-07-06T23:40:55;15.02;69.33
69589;SHT31;56792;50.644;17.984;2022-07-06T23:43:25;15.01;69.68
69589;SHT31;56792;50.644;17.984;2022-07-06T23:45:55;14.96;69.78
69589;SHT31;56792;50.644;17.984;2022-07-06T23:48:27;14.91;69.96
69589;SHT31;56792;50.644;17.984;2022-07-06T23:50:57;14.91;70.19
69589;SHT31;56792;50.644;17.984;2022-07-06T23:53:47;14.93;70.25
69589;SHT31;56792;50.644;17.984;2022-07-06T23:56:37;14.93;70.23
69589;SHT31;56792;50.644;17.984;2022-07-06T23:59:12;14.94;70.26
